sensor_id;sensor_type;location;lat;lon;timestamp;P1;durP1;ratioP1;P2;durP2;ratioP2
69369;SDS011;56530;42.640;23.372;2023-12-20T00:02:06;17.53;;;13.73;;
69369;SDS011;56530;42.640;23.372;2023-12-20T00:04:32;16.33;;;14.03;;
69369;SDS011;56530;42.640;23.372;2023-12-20T00:06:57;17.97;;;15.27;;
69369;SDS011;56530;42.640;23.372;2023-12-20T00:09:22;16.80;;;14.30;;
69369;SDS011;56530;42.640;23.372;2023-12-20T00:11:48;16.93;;;14.67;;
69369;SDS011;56530;42.640;23.372;2023-12-20T00:14:13;19.53;;;13.97;;
69369;SDS011;56530;42.640;23.372;2023-12-20T00:16:38;14.40;;;12.90;;
69369;SDS011;56530;42.640;23.372;2023-12-20T00:19:04;16.43;;;14.73;;
69369;SDS011;56530;42.640;23.372;2023-12-20T00:21:29;18.60;;;15.83;;
69369;SDS011;56530;42.640;23.372;2023-12-20T00:23:54;19.63;;;17.53;;
69369;SDS011;56530;42.640;23.372;2023-12-20T00:26:20;25.53;;;21.33;;
69369;SDS011;56530;42.640;23.372;2023-12-20T00:28:45;21.13;;;17.47;;
69369;SDS011;56530;42.640;23.372;2023-12-20T00:31:10;21.13;;;18.60;;
69369;SDS011;56530;42.640;23.372;2023-12-20T00:33:36;22.87;;;16.87;;
69369;SDS011;56530;42.640;23.372;2023-12-20T00:36:01;18.47;;;16.27;;
69369;SDS011;56530;42.640;23.372;2023-12-20T00:38:27;19.47;;;16.23;;
69369;SDS011;56530;42.640;23.372;2023-12-20T00:40:52;18.73;;;16.60;;
69369;SDS011;56530;42.640;23.372;2023-12-20T00:43:18;19.83;;;16.83;;
69369;SDS011;56530;42.640;23.372;2023-12-20T00:45:43;15.97;;;14.33;;
69369;SDS011;56530;42.640;23.372;2023-12-20T00:48:08;16.30;;;14.43;;
69369;SDS011;56530;42.640;23.372;2023-12-20T00:50:34;15.30;;;13.70;;
69369;SDS011;56530;42.640;23.372;2023-12-20T00:52:59;12.63;;;11.27;;
69369;SDS011;56530;42.640;23.372;2023-12-20T00:55:24;13.20;;;11.80;;
69369;SDS011;56530;42.640;23.372;2023-12-20T00:57:49;9.73;;;8.70;;
69369;SDS011;56530;42.640;23.372;2023-12-20T01:00:15;10.03;;;9.03;;
69369;SDS011;56530;42.640;23.372;2023-12-20T01:02:40;9.63;;;8.63;;
69369;SDS011;56530;42.640;23.372;2023-12-20T01:05:06;10.37;;;9.37;;
69369;SDS011;56530;42.640;23.372;2023-12-20T01:07:32;9.70;;;7.90;;
69369;SDS011;56530;42.640;23.372;2023-12-20T01:09:57;9.20;;;8.30;;
69369;SDS011;56530;42.640;23.372;2023-12-20T01:12:23;9.83;;;8.83;;
69369;SDS011;56530;42.640;23.372;2023-12-20T01:14:48;9.37;;;8.37;;
69369;SDS011;56530;42.640;23.372;2023-12-20T01:17:14;12.00;;;9.30;;
69369;SDS011;56530;42.640;23.372;2023-12-20T01:19:39;10.17;;;9.17;;
69369;SDS011;56530;42.640;23.372;2023-12-20T01:22:04;9.53;;;8.53;;
69369;SDS011;56530;42.640;23.372;2023-12-20T01:24:30;8.93;;;8.03;;
69369;SDS011;56530;42.640;23.372;2023-12-20T01:26:55;8.77;;;7.97;;
69369;SDS011;56530;42.640;23.372;2023-12-20T01:29:20;8.50;;;7.30;;
69369;SDS011;56530;42.640;23.372;2023-12-20T01:31:46;9.23;;;8.33;;
69369;SDS011;56530;42.640;23.372;2023-12-20T01:34:11;9.63;;;8.47;;
69369;SDS011;56530;42.640;23.372;2023-12-20T01:36:37;7.97;;;7.17;;
69369;SDS011;56530;42.640;23.372;2023-12-20T01:39:02;9.00;;;8.10;;
69369;SDS011;56530;42.640;23.372;2023-12-20T01:41:28;9.43;;;8.43;;
69369;SDS011;56530;42.640;23.372;2023-12-20T01:43:53;9.60;;;8.60;;
69369;SDS011;56530;42.640;23.372;2023-12-20T01:46:18;9.40;;;8.50;;
69369;SDS011;56530;42.640;23.372;2023-12-20T01:48:45;8.23;;;7.53;;
69369;SDS011;56530;42.640;23.372;2023-12-20T01:51:10;9.33;;;8.20;;
69369;SDS011;56530;42.640;23.372;2023-12-20T01:53:36;9.60;;;8.70;;
69369;SDS011;56530;42.640;23.372;2023-12-20T01:56:01;10.00;;;9.05;;
69369;SDS011;56530;42.640;23.372;2023-12-20T01:58:27;10.17;;;9.17;;
69369;SDS011;56530;42.640;23.372;2023-12-20T02:00:52;9.97;;;9.00;;
69369;SDS011;56530;42.640;23.372;2023-12-20T02:03:18;9.87;;;8.87;;
69369;SDS011;56530;42.640;23.372;2023-12-20T02:05:44;9.70;;;8.70;;
69369;SDS011;56530;42.640;23.372;2023-12-20T02:08:09;10.77;;;9.67;;
69369;SDS011;56530;42.640;23.372;2023-12-20T02:10:35;10.43;;;9.43;;
69369;SDS011;56530;42.640;23.372;2023-12-20T02:13:00;10.70;;;9.27;;
69369;SDS011;56530;42.640;23.372;2023-12-20T02:15:25;9.50;;;8.60;;
69369;SDS011;56530;42.640;23.372;2023-12-20T02:17:51;9.67;;;8.67;;
69369;SDS011;56530;42.640;23.372;2023-12-20T02:20:16;11.77;;;9.40;;
69369;SDS011;56530;42.640;23.372;2023-12-20T02:22:42;9.40;;;8.60;;
69369;SDS011;56530;42.640;23.372;2023-12-20T02:25:07;9.70;;;8.80;;
69369;SDS011;56530;42.640;23.372;2023-12-20T02:27:32;8.80;;;7.93;;
69369;SDS011;56530;42.640;23.372;2023-12-20T02:29:58;8.33;;;7.63;;
69369;SDS011;56530;42.640;23.372;2023-12-20T02:32:24;8.40;;;7.60;;
69369;SDS011;56530;42.640;23.372;2023-12-20T02:34:53;8.93;;;8.10;;
69369;SDS011;56530;42.640;23.372;2023-12-20T02:37:20;9.23;;;8.33;;
69369;SDS011;56530;42.640;23.372;2023-12-20T02:39:45;9.53;;;8.30;;
69369;SDS011;56530;42.640;23.372;2023-12-20T02:42:11;9.83;;;8.83;;
69369;SDS011;56530;42.640;23.372;2023-12-20T02:44:36;9.00;;;8.10;;
69369;SDS011;56530;42.640;23.372;2023-12-20T02:47:02;11.33;;;9.07;;
69369;SDS011;56530;42.640;23.372;2023-12-20T02:49:27;11.57;;;9.67;;
69369;SDS011;56530;42.640;23.372;2023-12-20T02:51:53;10.57;;;9.43;;
69369;SDS011;56530;42.640;23.372;2023-12-20T02:54:18;15.03;;;11.13;;
69369;SDS011;56530;42.640;23.372;2023-12-20T02:56:43;13.20;;;11.80;;
69369;SDS011;56530;42.640;23.372;2023-12-20T02:59:09;13.70;;;11.43;;
69369;SDS011;56530;42.640;23.372;2023-12-20T03:01:34;12.97;;;11.63;;
69369;SDS011;56530;42.640;23.372;2023-12-20T03:04:00;13.47;;;11.57;;
69369;SDS011;56530;42.640;23.372;2023-12-20T03:06:26;14.37;;;12.43;;
69369;SDS011;56530;42.640;23.372;2023-12-20T03:08:51;13.77;;;12.37;;
69369;SDS011;56530;42.640;23.372;2023-12-20T03:11:17;14.40;;;12.43;;
69369;SDS011;56530;42.640;23.372;2023-12-20T03:13:42;13.97;;;12.50;;
69369;SDS011;56530;42.640;23.372;2023-12-20T03:16:08;14.30;;;12.47;;
69369;SDS011;56530;42.640;23.372;2023-12-20T03:18:34;14.37;;;12.43;;
69369;SDS011;56530;42.640;23.372;2023-12-20T03:20:59;13.33;;;11.83;;
69369;SDS011;56530;42.640;23.372;2023-12-20T03:23:25;15.63;;;12.73;;
69369;SDS011;56530;42.640;23.372;2023-12-20T03:25:52;14.43;;;12.97;;
69369;SDS011;56530;42.640;23.372;2023-12-20T03:28:17;14.70;;;13.13;;
69369;SDS011;56530;42.640;23.372;2023-12-20T03:30:43;13.80;;;12.40;;
69369;SDS011;56530;42.640;23.372;2023-12-20T03:33:08;13.57;;;12.10;;
69369;SDS011;56530;42.640;23.372;2023-12-20T03:35:34;15.83;;;13.83;;
69369;SDS011;56530;42.640;23.372;2023-12-20T03:37:59;18.20;;;13.80;;
69369;SDS011;56530;42.640;23.372;2023-12-20T03:40:25;15.27;;;13.53;;
69369;SDS011;56530;42.640;23.372;2023-12-20T03:42:50;16.27;;;14.57;;
69369;SDS011;56530;42.640;23.372;2023-12-20T03:45:16;19.10;;;12.97;;
69369;SDS011;56530;42.640;23.372;2023-12-20T03:47:41;14.77;;;13.20;;
69369;SDS011;56530;42.640;23.372;2023-12-20T03:50:07;14.63;;;13.20;;
69369;SDS011;56530;42.640;23.372;2023-12-20T03:52:32;14.47;;;12.53;;
69369;SDS011;56530;42.640;23.372;2023-12-20T03:54:57;15.50;;;12.83;;
69369;SDS011;56530;42.640;23.372;2023-12-20T03:57:23;16.40;;;14.70;;
69369;SDS011;56530;42.640;23.372;2023-12-20T03:59:48;14.77;;;13.23;;
69369;SDS011;56530;42.640;23.372;2023-12-20T04:02:14;13.27;;;11.87;;
69369;SDS011;56530;42.640;23.372;2023-12-20T04:04:39;14.13;;;12.73;;
69369;SDS011;56530;42.640;23.372;2023-12-20T04:07:04;13.37;;;12.07;;
69369;SDS011;56530;42.640;23.372;2023-12-20T04:09:29;13.43;;;12.10;;
69369;SDS011;56530;42.640;23.372;2023-12-20T04:11:55;13.97;;;12.03;;
69369;SDS011;56530;42.640;23.372;2023-12-20T04:14:20;14.40;;;12.97;;
69369;SDS011;56530;42.640;23.372;2023-12-20T04:16:46;13.67;;;12.27;;
69369;SDS011;56530;42.640;23.372;2023-12-20T04:19:11;14.03;;;12.20;;
69369;SDS011;56530;42.640;23.372;2023-12-20T04:21:36;17.30;;;15.60;;
69369;SDS011;56530;42.640;23.372;2023-12-20T04:24:02;18.67;;;16.10;;
69369;SDS011;56530;42.640;23.372;2023-12-20T04:26:27;16.43;;;14.60;;
69369;SDS011;56530;42.640;23.372;2023-12-20T04:28:52;16.10;;;14.37;;
69369;SDS011;56530;42.640;23.372;2023-12-20T04:31:18;16.47;;;14.77;;
69369;SDS011;56530;42.640;23.372;2023-12-20T04:33:43;14.13;;;12.70;;
69369;SDS011;56530;42.640;23.372;2023-12-20T04:36:09;16.77;;;13.80;;
69369;SDS011;56530;42.640;23.372;2023-12-20T04:38:34;19.90;;;17.00;;
69369;SDS011;56530;42.640;23.372;2023-12-20T04:40:59;21.17;;;18.93;;
69369;SDS011;56530;42.640;23.372;2023-12-20T04:43:25;19.40;;;16.47;;
69369;SDS011;56530;42.640;23.372;2023-12-20T04:45:50;17.73;;;15.43;;
69369;SDS011;56530;42.640;23.372;2023-12-20T04:48:15;17.40;;;15.07;;
69369;SDS011;56530;42.640;23.372;2023-12-20T04:50:41;12.97;;;11.43;;
69369;SDS011;56530;42.640;23.372;2023-12-20T04:53:07;11.13;;;9.93;;
69369;SDS011;56530;42.640;23.372;2023-12-20T04:55:32;11.40;;;9.90;;
69369;SDS011;56530;42.640;23.372;2023-12-20T04:57:57;10.53;;;9.43;;
69369;SDS011;56530;42.640;23.372;2023-12-20T05:00:23;12.03;;;9.97;;
69369;SDS011;56530;42.640;23.372;2023-12-20T05:02:48;11.87;;;10.43;;
69369;SDS011;56530;42.640;23.372;2023-12-20T05:05:13;10.30;;;9.40;;
69369;SDS011;56530;42.640;23.372;2023-12-20T05:07:40;11.60;;;10.07;;
69369;SDS011;56530;42.640;23.372;2023-12-20T05:10:05;10.90;;;8.60;;
69369;SDS011;56530;42.640;23.372;2023-12-20T05:12:33;13.30;;;12.00;;
69369;SDS011;56530;42.640;23.372;2023-12-20T05:14:58;11.43;;;10.33;;
69369;SDS011;56530;42.640;23.372;2023-12-20T05:17:24;13.33;;;11.93;;
69369;SDS011;56530;42.640;23.372;2023-12-20T05:19:50;18.03;;;16.23;;
69369;SDS011;56530;42.640;23.372;2023-12-20T05:22:15;21.03;;;18.97;;
69369;SDS011;56530;42.640;23.372;2023-12-20T05:24:40;21.37;;;19.17;;
69369;SDS011;56530;42.640;23.372;2023-12-20T05:27:06;19.67;;;17.70;;
69369;SDS011;56530;42.640;23.372;2023-12-20T05:29:32;21.57;;;19.37;;
69369;SDS011;56530;42.640;23.372;2023-12-20T05:31:58;26.90;;;24.07;;
69369;SDS011;56530;42.640;23.372;2023-12-20T05:34:23;35.40;;;29.20;;
69369;SDS011;56530;42.640;23.372;2023-12-20T05:36:49;35.07;;;29.07;;
69369;SDS011;56530;42.640;23.372;2023-12-20T05:39:14;45.57;;;32.33;;
69369;SDS011;56530;42.640;23.372;2023-12-20T05:41:39;80.47;;;36.43;;
69369;SDS011;56530;42.640;23.372;2023-12-20T05:44:05;43.17;;;31.23;;
69369;SDS011;56530;42.640;23.372;2023-12-20T05:46:30;43.30;;;32.27;;
69369;SDS011;56530;42.640;23.372;2023-12-20T05:48:55;33.20;;;26.23;;
69369;SDS011;56530;42.640;23.372;2023-12-20T05:51:21;41.20;;;32.33;;
69369;SDS011;56530;42.640;23.372;2023-12-20T05:53:46;44.33;;;31.70;;
69369;SDS011;56530;42.640;23.372;2023-12-20T05:56:12;90.97;;;40.60;;
69369;SDS011;56530;42.640;23.372;2023-12-20T05:58:38;39.40;;;29.60;;
69369;SDS011;56530;42.640;23.372;2023-12-20T06:01:04;40.20;;;32.20;;
69369;SDS011;56530;42.640;23.372;2023-12-20T06:03:30;62.93;;;36.33;;
69369;SDS011;56530;42.640;23.372;2023-12-20T06:05:55;79.27;;;37.53;;
69369;SDS011;56530;42.640;23.372;2023-12-20T06:08:21;65.60;;;36.93;;
69369;SDS011;56530;42.640;23.372;2023-12-20T06:10:46;42.17;;;33.73;;
69369;SDS011;56530;42.640;23.372;2023-12-20T06:13:12;82.77;;;38.77;;
69369;SDS011;56530;42.640;23.372;2023-12-20T06:15:38;52.93;;;33.60;;
69369;SDS011;56530;42.640;23.372;2023-12-20T06:18:05;52.17;;;32.83;;
69369;SDS011;56530;42.640;23.372;2023-12-20T06:20:30;60.90;;;33.93;;
69369;SDS011;56530;42.640;23.372;2023-12-20T06:22:55;39.37;;;31.97;;
69369;SDS011;56530;42.640;23.372;2023-12-20T06:25:21;47.83;;;33.03;;
69369;SDS011;56530;42.640;23.372;2023-12-20T06:27:46;46.90;;;33.03;;
69369;SDS011;56530;42.640;23.372;2023-12-20T06:30:12;41.03;;;30.63;;
69369;SDS011;56530;42.640;23.372;2023-12-20T06:32:37;42.27;;;31.30;;
69369;SDS011;56530;42.640;23.372;2023-12-20T06:35:04;37.83;;;29.73;;
69369;SDS011;56530;42.640;23.372;2023-12-20T06:37:30;35.33;;;27.23;;
69369;SDS011;56530;42.640;23.372;2023-12-20T06:39:55;34.27;;;27.50;;
69369;SDS011;56530;42.640;23.372;2023-12-20T06:42:21;36.20;;;28.67;;
69369;SDS011;56530;42.640;23.372;2023-12-20T06:44:47;37.43;;;30.83;;
69369;SDS011;56530;42.640;23.372;2023-12-20T06:47:12;41.43;;;31.40;;
69369;SDS011;56530;42.640;23.372;2023-12-20T06:49:39;35.40;;;28.73;;
69369;SDS011;56530;42.640;23.372;2023-12-20T06:52:04;31.03;;;25.53;;
69369;SDS011;56530;42.640;23.372;2023-12-20T06:54:30;32.67;;;25.27;;
69369;SDS011;56530;42.640;23.372;2023-12-20T06:56:55;32.63;;;26.23;;
69369;SDS011;56530;42.640;23.372;2023-12-20T06:59:20;30.97;;;24.57;;
69369;SDS011;56530;42.640;23.372;2023-12-20T07:01:49;30.23;;;24.10;;
69369;SDS011;56530;42.640;23.372;2023-12-20T07:04:15;29.53;;;23.77;;
69369;SDS011;56530;42.640;23.372;2023-12-20T07:06:41;31.33;;;24.83;;
69369;SDS011;56530;42.640;23.372;2023-12-20T07:09:07;27.80;;;23.50;;
69369;SDS011;56530;42.640;23.372;2023-12-20T07:11:32;29.63;;;23.67;;
69369;SDS011;56530;42.640;23.372;2023-12-20T07:13:57;21.50;;;18.50;;
69369;SDS011;56530;42.640;23.372;2023-12-20T07:16:23;22.63;;;20.07;;
69369;SDS011;56530;42.640;23.372;2023-12-20T07:18:48;24.17;;;21.03;;
69369;SDS011;56530;42.640;23.372;2023-12-20T07:21:13;19.90;;;17.73;;
69369;SDS011;56530;42.640;23.372;2023-12-20T07:23:39;19.50;;;17.40;;
69369;SDS011;56530;42.640;23.372;2023-12-20T07:26:04;21.70;;;19.40;;
69369;SDS011;56530;42.640;23.372;2023-12-20T07:28:29;32.37;;;26.93;;
69369;SDS011;56530;42.640;23.372;2023-12-20T07:30:55;36.80;;;28.97;;
69369;SDS011;56530;42.640;23.372;2023-12-20T07:33:20;28.83;;;25.03;;
69369;SDS011;56530;42.640;23.372;2023-12-20T07:35:46;22.60;;;19.50;;
69369;SDS011;56530;42.640;23.372;2023-12-20T07:38:12;22.87;;;20.40;;
69369;SDS011;56530;42.640;23.372;2023-12-20T07:40:37;19.20;;;17.20;;
69369;SDS011;56530;42.640;23.372;2023-12-20T07:43:03;21.50;;;19.20;;
69369;SDS011;56530;42.640;23.372;2023-12-20T07:45:29;20.93;;;18.83;;
69369;SDS011;56530;42.640;23.372;2023-12-20T07:47:54;23.33;;;20.27;;
69369;SDS011;56530;42.640;23.372;2023-12-20T07:50:19;22.33;;;19.23;;
69369;SDS011;56530;42.640;23.372;2023-12-20T07:52:45;25.73;;;21.30;;
69369;SDS011;56530;42.640;23.372;2023-12-20T07:55:10;26.23;;;21.03;;
69369;SDS011;56530;42.640;23.372;2023-12-20T07:57:36;29.03;;;23.63;;
69369;SDS011;56530;42.640;23.372;2023-12-20T08:00:01;33.17;;;26.43;;
69369;SDS011;56530;42.640;23.372;2023-12-20T08:02:28;28.27;;;24.07;;
69369;SDS011;56530;42.640;23.372;2023-12-20T08:04:54;32.33;;;24.73;;
69369;SDS011;56530;42.640;23.372;2023-12-20T08:07:19;32.13;;;25.60;;
69369;SDS011;56530;42.640;23.372;2023-12-20T08:09:45;32.23;;;25.50;;
69369;SDS011;56530;42.640;23.372;2023-12-20T08:12:10;31.73;;;26.07;;
69369;SDS011;56530;42.640;23.372;2023-12-20T08:14:36;34.77;;;27.27;;
69369;SDS011;56530;42.640;23.372;2023-12-20T08:17:01;38.83;;;29.13;;
69369;SDS011;56530;42.640;23.372;2023-12-20T08:19:27;42.20;;;30.80;;
69369;SDS011;56530;42.640;23.372;2023-12-20T08:21:53;42.67;;;32.27;;
69369;SDS011;56530;42.640;23.372;2023-12-20T08:24:19;48.90;;;34.93;;
69369;SDS011;56530;42.640;23.372;2023-12-20T08:26:44;46.03;;;33.30;;
69369;SDS011;56530;42.640;23.372;2023-12-20T08:29:12;55.50;;;39.37;;
69369;SDS011;56530;42.640;23.372;2023-12-20T08:31:40;53.33;;;38.73;;
69369;SDS011;56530;42.640;23.372;2023-12-20T08:34:06;57.80;;;38.90;;
69369;SDS011;56530;42.640;23.372;2023-12-20T08:36:31;50.13;;;37.80;;
69369;SDS011;56530;42.640;23.372;2023-12-20T08:38:56;60.83;;;39.30;;
69369;SDS011;56530;42.640;23.372;2023-12-20T08:41:22;56.13;;;38.60;;
69369;SDS011;56530;42.640;23.372;2023-12-20T08:43:47;63.93;;;45.10;;
69369;SDS011;56530;42.640;23.372;2023-12-20T08:46:14;54.67;;;41.53;;
69369;SDS011;56530;42.640;23.372;2023-12-20T08:48:39;46.33;;;35.67;;
69369;SDS011;56530;42.640;23.372;2023-12-20T08:51:05;41.73;;;31.47;;
69369;SDS011;56530;42.640;23.372;2023-12-20T08:53:33;47.30;;;35.93;;
69369;SDS011;56530;42.640;23.372;2023-12-20T08:55:58;52.53;;;37.60;;
69369;SDS011;56530;42.640;23.372;2023-12-20T08:58:26;54.63;;;40.50;;
69369;SDS011;56530;42.640;23.372;2023-12-20T09:00:51;56.13;;;39.50;;
69369;SDS011;56530;42.640;23.372;2023-12-20T09:03:17;49.97;;;38.27;;
69369;SDS011;56530;42.640;23.372;2023-12-20T09:05:42;55.70;;;36.73;;
69369;SDS011;56530;42.640;23.372;2023-12-20T09:08:08;50.80;;;38.70;;
69369;SDS011;56530;42.640;23.372;2023-12-20T09:10:35;57.70;;;40.67;;
69369;SDS011;56530;42.640;23.372;2023-12-20T09:13:00;56.37;;;41.10;;
69369;SDS011;56530;42.640;23.372;2023-12-20T09:15:26;55.27;;;39.47;;
69369;SDS011;56530;42.640;23.372;2023-12-20T09:17:55;48.03;;;37.23;;
69369;SDS011;56530;42.640;23.372;2023-12-20T09:20:20;50.33;;;37.93;;
69369;SDS011;56530;42.640;23.372;2023-12-20T09:22:46;49.70;;;38.87;;
69369;SDS011;56530;42.640;23.372;2023-12-20T09:25:12;51.80;;;40.07;;
69369;SDS011;56530;42.640;23.372;2023-12-20T09:27:39;49.97;;;40.03;;
69369;SDS011;56530;42.640;23.372;2023-12-20T09:30:05;59.43;;;41.37;;
69369;SDS011;56530;42.640;23.372;2023-12-20T09:32:31;52.93;;;40.57;;
69369;SDS011;56530;42.640;23.372;2023-12-20T09:34:56;50.27;;;41.10;;
69369;SDS011;56530;42.640;23.372;2023-12-20T09:37:22;60.30;;;46.17;;
69369;SDS011;56530;42.640;23.372;2023-12-20T09:39:50;65.33;;;46.87;;
69369;SDS011;56530;42.640;23.372;2023-12-20T09:42:17;62.50;;;46.17;;
69369;SDS011;56530;42.640;23.372;2023-12-20T09:44:48;67.70;;;46.83;;
69369;SDS011;56530;42.640;23.372;2023-12-20T09:47:14;60.67;;;45.60;;
69369;SDS011;56530;42.640;23.372;2023-12-20T09:49:40;70.73;;;50.10;;
69369;SDS011;56530;42.640;23.372;2023-12-20T09:52:06;67.07;;;48.77;;
69369;SDS011;56530;42.640;23.372;2023-12-20T09:54:33;66.50;;;49.40;;
69369;SDS011;56530;42.640;23.372;2023-12-20T09:56:58;64.47;;;50.77;;
69369;SDS011;56530;42.640;23.372;2023-12-20T09:59:24;65.30;;;49.93;;
69369;SDS011;56530;42.640;23.372;2023-12-20T10:01:49;64.10;;;49.50;;
69369;SDS011;56530;42.640;23.372;2023-12-20T10:04:15;57.10;;;46.70;;
69369;SDS011;56530;42.640;23.372;2023-12-20T10:06:41;61.53;;;45.83;;
69369;SDS011;56530;42.640;23.372;2023-12-20T10:09:07;61.07;;;45.30;;
69369;SDS011;56530;42.640;23.372;2023-12-20T10:11:35;62.17;;;47.47;;
69369;SDS011;56530;42.640;23.372;2023-12-20T10:14:03;65.03;;;48.93;;
69369;SDS011;56530;42.640;23.372;2023-12-20T10:16:29;62.53;;;48.57;;
69369;SDS011;56530;42.640;23.372;2023-12-20T10:18:55;67.43;;;48.97;;
69369;SDS011;56530;42.640;23.372;2023-12-20T10:21:21;60.10;;;47.17;;
69369;SDS011;56530;42.640;23.372;2023-12-20T10:23:48;61.10;;;48.17;;
69369;SDS011;56530;42.640;23.372;2023-12-20T10:26:27;65.27;;;47.27;;
69369;SDS011;56530;42.640;23.372;2023-12-20T10:28:53;62.67;;;48.63;;
69369;SDS011;56530;42.640;23.372;2023-12-20T10:34:11;65.33;;;49.63;;
69369;SDS011;56530;42.640;23.372;2023-12-20T10:36:36;57.50;;;47.03;;
69369;SDS011;56530;42.640;23.372;2023-12-20T10:39:02;61.30;;;48.73;;
69369;SDS011;56530;42.640;23.372;2023-12-20T10:41:31;64.00;;;48.83;;
69369;SDS011;56530;42.640;23.372;2023-12-20T10:44:01;75.77;;;56.37;;
69369;SDS011;56530;42.640;23.372;2023-12-20T10:46:28;68.60;;;53.83;;
69369;SDS011;56530;42.640;23.372;2023-12-20T10:48:54;71.63;;;55.03;;
69369;SDS011;56530;42.640;23.372;2023-12-20T10:51:21;64.93;;;50.43;;
69369;SDS011;56530;42.640;23.372;2023-12-20T10:53:47;58.23;;;49.30;;
69369;SDS011;56530;42.640;23.372;2023-12-20T10:56:17;59.30;;;47.17;;
69369;SDS011;56530;42.640;23.372;2023-12-20T10:58:43;56.40;;;45.83;;
69369;SDS011;56530;42.640;23.372;2023-12-20T11:01:08;58.83;;;47.57;;
69369;SDS011;56530;42.640;23.372;2023-12-20T11:03:34;64.93;;;47.93;;
69369;SDS011;56530;42.640;23.372;2023-12-20T11:06:04;60.87;;;46.47;;
69369;SDS011;56530;42.640;23.372;2023-12-20T11:08:50;62.40;;;51.27;;
69369;SDS011;56530;42.640;23.372;2023-12-20T11:14:23;58.70;;;47.20;;
69369;SDS011;56530;42.640;23.372;2023-12-20T11:17:06;59.17;;;50.90;;
69369;SDS011;56530;42.640;23.372;2023-12-20T11:22:21;65.63;;;52.50;;
69369;SDS011;56530;42.640;23.372;2023-12-20T11:24:47;61.87;;;49.30;;
69369;SDS011;56530;42.640;23.372;2023-12-20T11:27:13;59.07;;;48.43;;
69369;SDS011;56530;42.640;23.372;2023-12-20T11:29:39;62.00;;;48.80;;
69369;SDS011;56530;42.640;23.372;2023-12-20T11:34:53;62.60;;;50.73;;
69369;SDS011;56530;42.640;23.372;2023-12-20T11:37:20;68.47;;;53.27;;
69369;SDS011;56530;42.640;23.372;2023-12-20T11:39:45;56.37;;;49.13;;
69369;SDS011;56530;42.640;23.372;2023-12-20T11:42:20;62.83;;;51.00;;
69369;SDS011;56530;42.640;23.372;2023-12-20T11:44:45;61.80;;;51.33;;
69369;SDS011;56530;42.640;23.372;2023-12-20T11:47:11;61.83;;;50.33;;
69369;SDS011;56530;42.640;23.372;2023-12-20T11:49:37;57.10;;;48.83;;
69369;SDS011;56530;42.640;23.372;2023-12-20T11:52:02;57.43;;;48.83;;
69369;SDS011;56530;42.640;23.372;2023-12-20T11:54:29;55.70;;;47.03;;
69369;SDS011;56530;42.640;23.372;2023-12-20T11:56:55;54.53;;;47.13;;
69369;SDS011;56530;42.640;23.372;2023-12-20T11:59:20;56.23;;;45.20;;
69369;SDS011;56530;42.640;23.372;2023-12-20T12:01:52;54.97;;;46.47;;
69369;SDS011;56530;42.640;23.372;2023-12-20T12:04:17;53.97;;;44.83;;
69369;SDS011;56530;42.640;23.372;2023-12-20T12:06:43;54.17;;;46.37;;
69369;SDS011;56530;42.640;23.372;2023-12-20T12:09:10;59.63;;;47.03;;
69369;SDS011;56530;42.640;23.372;2023-12-20T12:11:35;67.30;;;51.57;;
69369;SDS011;56530;42.640;23.372;2023-12-20T12:14:01;55.53;;;45.23;;
69369;SDS011;56530;42.640;23.372;2023-12-20T12:16:26;61.20;;;49.67;;
69369;SDS011;56530;42.640;23.372;2023-12-20T12:18:55;63.00;;;52.13;;
69369;SDS011;56530;42.640;23.372;2023-12-20T12:21:22;63.20;;;50.63;;
69369;SDS011;56530;42.640;23.372;2023-12-20T12:23:47;56.97;;;49.10;;
69369;SDS011;56530;42.640;23.372;2023-12-20T12:26:13;53.37;;;44.27;;
69369;SDS011;56530;42.640;23.372;2023-12-20T12:28:41;54.77;;;45.00;;
69369;SDS011;56530;42.640;23.372;2023-12-20T12:31:07;54.80;;;46.37;;
69369;SDS011;56530;42.640;23.372;2023-12-20T12:33:33;49.43;;;40.47;;
69369;SDS011;56530;42.640;23.372;2023-12-20T12:35:59;50.20;;;42.07;;
69369;SDS011;56530;42.640;23.372;2023-12-20T12:38:29;45.83;;;38.23;;
69369;SDS011;56530;42.640;23.372;2023-12-20T12:40:55;49.97;;;42.03;;
69369;SDS011;56530;42.640;23.372;2023-12-20T12:43:20;47.17;;;41.10;;
69369;SDS011;56530;42.640;23.372;2023-12-20T12:45:47;49.33;;;44.03;;
69369;SDS011;56530;42.640;23.372;2023-12-20T12:48:13;50.43;;;42.60;;
69369;SDS011;56530;42.640;23.372;2023-12-20T12:50:39;52.73;;;43.70;;
69369;SDS011;56530;42.640;23.372;2023-12-20T12:53:04;49.47;;;40.07;;
69369;SDS011;56530;42.640;23.372;2023-12-20T12:55:30;45.63;;;40.57;;
69369;SDS011;56530;42.640;23.372;2023-12-20T12:57:55;43.60;;;37.80;;
69369;SDS011;56530;42.640;23.372;2023-12-20T13:00:20;42.80;;;38.10;;
69369;SDS011;56530;42.640;23.372;2023-12-20T13:02:46;45.27;;;40.23;;
69369;SDS011;56530;42.640;23.372;2023-12-20T13:05:12;48.63;;;40.80;;
69369;SDS011;56530;42.640;23.372;2023-12-20T13:07:37;45.43;;;39.60;;
69369;SDS011;56530;42.640;23.372;2023-12-20T13:10:04;44.97;;;38.07;;
69369;SDS011;56530;42.640;23.372;2023-12-20T13:12:30;50.97;;;40.37;;
69369;SDS011;56530;42.640;23.372;2023-12-20T13:14:57;49.80;;;40.20;;
69369;SDS011;56530;42.640;23.372;2023-12-20T13:17:22;49.43;;;42.93;;
69369;SDS011;56530;42.640;23.372;2023-12-20T13:19:47;47.67;;;42.03;;
69369;SDS011;56530;42.640;23.372;2023-12-20T13:22:14;53.83;;;45.50;;
69369;SDS011;56530;42.640;23.372;2023-12-20T13:24:40;58.47;;;46.23;;
69369;SDS011;56530;42.640;23.372;2023-12-20T13:27:05;61.33;;;47.67;;
69369;SDS011;56530;42.640;23.372;2023-12-20T13:29:30;63.30;;;48.83;;
69369;SDS011;56530;42.640;23.372;2023-12-20T13:31:56;56.83;;;47.50;;
69369;SDS011;56530;42.640;23.372;2023-12-20T13:34:22;63.60;;;47.90;;
69369;SDS011;56530;42.640;23.372;2023-12-20T13:36:48;61.20;;;48.53;;
69369;SDS011;56530;42.640;23.372;2023-12-20T13:39:15;62.20;;;49.57;;
69369;SDS011;56530;42.640;23.372;2023-12-20T13:41:41;60.60;;;48.60;;
69369;SDS011;56530;42.640;23.372;2023-12-20T13:44:07;61.53;;;46.50;;
69369;SDS011;56530;42.640;23.372;2023-12-20T13:46:32;61.77;;;47.13;;
69369;SDS011;56530;42.640;23.372;2023-12-20T13:48:58;55.47;;;45.00;;
69369;SDS011;56530;42.640;23.372;2023-12-20T13:51:23;54.83;;;45.93;;
69369;SDS011;56530;42.640;23.372;2023-12-20T13:53:49;59.07;;;46.33;;
69369;SDS011;56530;42.640;23.372;2023-12-20T13:56:14;56.30;;;46.77;;
69369;SDS011;56530;42.640;23.372;2023-12-20T13:58:40;65.00;;;48.67;;
69369;SDS011;56530;42.640;23.372;2023-12-20T14:01:06;65.63;;;50.90;;
69369;SDS011;56530;42.640;23.372;2023-12-20T14:03:32;60.40;;;49.20;;
69369;SDS011;56530;42.640;23.372;2023-12-20T14:05:58;60.43;;;49.20;;
69369;SDS011;56530;42.640;23.372;2023-12-20T14:08:24;65.07;;;49.83;;
69369;SDS011;56530;42.640;23.372;2023-12-20T14:10:49;62.77;;;48.70;;
69369;SDS011;56530;42.640;23.372;2023-12-20T14:13:15;59.90;;;47.37;;
69369;SDS011;56530;42.640;23.372;2023-12-20T14:15:40;57.10;;;45.37;;